sensor_id;sensor_type;location;lat;lon;timestamp;pressure;altitude;pressure_sealevel;temperature;humidity
60055;BME280;45930;53.514;55.904;2024-02-14T00:00:50;49773.78;;;-149.77;100.00
60055;BME280;45930;53.514;55.904;2024-02-14T00:01:51;49761.88;;;-149.77;100.00
60055;BME280;45930;53.514;55.904;2024-02-14T00:02:52;49803.50;;;-149.77;100.00
60055;BME280;45930;53.514;55.904;2024-02-14T00:03:53;49781.69;;;-149.77;100.00
60055;BME280;45930;53.514;55.904;2024-02-14T00:04:54;49777.75;;;-149.77;100.00
60055;BME280;45930;53.514;55.904;2024-02-14T00:05:55;49753.97;;;-149.77;100.00
60055;BME280;45930;53.514;55.904;2024-02-14T00:06:57;49716.31;;;-149.77;100.00
60055;BME280;45930;53.514;55.904;2024-02-14T00:07:58;49710.38;;;-149.77;100.00
60055;BME280;45930;53.514;55.904;2024-02-14T00:08:58;49704.44;;;-149.77;100.00
60055;BME280;45930;53.514;55.904;2024-02-14T00:10:00;49670.75;;;-149.77;100.00
60055;BME280;45930;53.514;55.904;2024-02-14T00:11:01;49643.03;;;-149.77;100.00
60055;BME280;45930;53.514;55.904;2024-02-14T00:12:02;49682.66;;;-149.77;100.00
60055;BME280;45930;53.514;55.904;2024-02-14T00:13:04;49656.91;;;-149.77;100.00
60055;BME280;45930;53.514;55.904;2024-02-14T00:14:04;49623.22;;;-149.77;100.00
60055;BME280;45930;53.514;55.904;2024-02-14T00:15:08;49635.09;;;-149.77;100.00
60055;BME280;45930;53.514;55.904;2024-02-14T00:16:09;49670.75;;;-149.77;100.00
60055;BME280;45930;53.514;55.904;2024-02-14T00:17:10;49710.38;;;-149.77;100.00
60055;BME280;45930;53.514;55.904;2024-02-14T00:18:11;49882.75;;;-149.77;100.00
60055;BME280;45930;53.514;55.904;2024-02-14T00:19:12;50189.81;;;-149.77;100.00
60055;BME280;45930;53.514;55.904;2024-02-14T00:20:12;50338.41;;;-149.77;100.00
60055;BME280;45930;53.514;55.904;2024-02-14T00:21:23;50437.47;;;-149.77;100.00
60055;BME280;45930;53.514;55.904;2024-02-14T00:22:24;50490.97;;;-149.77;100.00
60055;BME280;45930;53.514;55.904;2024-02-14T00:23:25;50518.72;;;-149.77;100.00
60055;BME280;45930;53.514;55.904;2024-02-14T00:24:26;50526.66;;;-149.77;100.00
60055;BME280;45930;53.514;55.904;2024-02-14T00:25:28;50568.25;;;-149.77;100.00
60055;BME280;45930;53.514;55.904;2024-02-14T00:26:31;50528.63;;;-149.77;100.00
60055;BME280;45930;53.514;55.904;2024-02-14T00:27:32;50562.31;;;-149.77;100.00
60055;BME280;45930;53.514;55.904;2024-02-14T00:28:33;50572.22;;;-149.77;100.00
60055;BME280;45930;53.514;55.904;2024-02-14T00:29:34;50584.09;;;-149.77;100.00
60055;BME280;45930;53.514;55.904;2024-02-14T00:30:35;50597.97;;;-149.77;100.00
60055;BME280;45930;53.514;55.904;2024-02-14T00:31:58;50601.94;;;-149.77;100.00
60055;BME280;45930;53.514;55.904;2024-02-14T00:33:00;50623.75;;;-149.77;100.00
60055;BME280;45930;53.514;55.904;2024-02-14T00:34:00;50566.28;;;-149.77;100.00
60055;BME280;45930;53.514;55.904;2024-02-14T00:35:01;50599.97;;;-149.77;100.00
60055;BME280;45930;53.514;55.904;2024-02-14T00:36:03;50599.97;;;-149.77;100.00
60055;BME280;45930;53.514;55.904;2024-02-14T00:37:04;50574.19;;;-149.77;100.00
60055;BME280;45930;53.514;55.904;2024-02-14T00:38:04;50621.75;;;-149.77;100.00
60055;BME280;45930;53.514;55.904;2024-02-14T00:39:05;50621.75;;;-149.77;100.00
60055;BME280;45930;53.514;55.904;2024-02-14T00:40:09;50605.91;;;-149.77;100.00
60055;BME280;45930;53.514;55.904;2024-02-14T00:41:11;50619.78;;;-149.77;100.00
60055;BME280;45930;53.514;55.904;2024-02-14T00:42:12;50605.91;;;-149.77;100.00
60055;BME280;45930;53.514;55.904;2024-02-14T00:43:13;50601.94;;;-149.77;100.00
60055;BME280;45930;53.514;55.904;2024-02-14T00:44:14;50599.97;;;-149.77;100.00
60055;BME280;45930;53.514;55.904;2024-02-14T00:45:19;50603.94;;;-149.77;100.00
60055;BME280;45930;53.514;55.904;2024-02-14T00:46:20;50590.06;;;-149.77;100.00
60055;BME280;45930;53.514;55.904;2024-02-14T00:47:20;50592.03;;;-149.77;100.00
60055;BME280;45930;53.514;55.904;2024-02-14T00:48:21;50566.28;;;-149.77;100.00
60055;BME280;45930;53.514;55.904;2024-02-14T00:49:22;50621.75;;;-149.77;100.00
60055;BME280;45930;53.514;55.904;2024-02-14T00:50:22;50617.78;;;-149.77;100.00
60055;BME280;45930;53.514;55.904;2024-02-14T00:51:23;50597.97;;;-149.77;100.00
60055;BME280;45930;53.514;55.904;2024-02-14T00:52:24;50578.16;;;-149.77;100.00
60055;BME280;45930;53.514;55.904;2024-02-14T00:53:25;50617.78;;;-149.77;100.00
60055;BME280;45930;53.514;55.904;2024-02-14T00:54:26;50631.66;;;-149.77;100.00
60055;BME280;45930;53.514;55.904;2024-02-14T00:55:26;50619.78;;;-149.77;100.00
60055;BME280;45930;53.514;55.904;2024-02-14T00:56:27;50625.72;;;-149.77;100.00
60055;BME280;45930;53.514;55.904;2024-02-14T00:57:28;50625.72;;;-149.77;100.00
60055;BME280;45930;53.514;55.904;2024-02-14T00:58:29;50635.63;;;-149.77;100.00
60055;BME280;45930;53.514;55.904;2024-02-14T00:59:30;50655.44;;;-149.77;100.00
60055;BME280;45930;53.514;55.904;2024-02-14T01:00:31;50625.72;;;-149.77;100.00
60055;BME280;45930;53.514;55.904;2024-02-14T01:01:34;50639.59;;;-149.77;100.00
60055;BME280;45930;53.514;55.904;2024-02-14T01:02:35;50655.44;;;-149.77;100.00
60055;BME280;45930;53.514;55.904;2024-02-14T01:03:36;50685.16;;;-149.77;100.00
60055;BME280;45930;53.514;55.904;2024-02-14T01:04:36;50685.16;;;-149.77;100.00
60055;BME280;45930;53.514;55.904;2024-02-14T01:05:37;50689.13;;;-149.77;100.00
60055;BME280;45930;53.514;55.904;2024-02-14T01:06:38;50689.13;;;-149.77;100.00
60055;BME280;45930;53.514;55.904;2024-02-14T01:07:39;50675.25;;;-149.77;100.00
60055;BME280;45930;53.514;55.904;2024-02-14T01:08:40;50673.28;;;-149.77;100.00
60055;BME280;45930;53.514;55.904;2024-02-14T01:09:41;50687.16;;;-149.77;100.00
60055;BME280;45930;53.514;55.904;2024-02-14T01:10:43;50689.13;;;-149.77;100.00
60055;BME280;45930;53.514;55.904;2024-02-14T01:11:44;50681.19;;;-149.77;100.00
60055;BME280;45930;53.514;55.904;2024-02-14T01:12:45;50710.94;;;-149.77;100.00
60055;BME280;45930;53.514;55.904;2024-02-14T01:13:46;50683.19;;;-149.77;100.00
60055;BME280;45930;53.514;55.904;2024-02-14T01:14:46;50685.16;;;-149.77;100.00
60055;BME280;45930;53.514;55.904;2024-02-14T01:15:47;50667.34;;;-149.77;100.00
60055;BME280;45930;53.514;55.904;2024-02-14T01:16:48;50714.88;;;-149.77;100.00
60055;BME280;45930;53.514;55.904;2024-02-14T01:17:48;50683.19;;;-149.77;100.00
60055;BME280;45930;53.514;55.904;2024-02-14T01:18:49;50683.19;;;-149.77;100.00
60055;BME280;45930;53.514;55.904;2024-02-14T01:19:50;50661.38;;;-149.77;100.00
60055;BME280;45930;53.514;55.904;2024-02-14T01:20:51;50673.28;;;-149.77;100.00
60055;BME280;45930;53.514;55.904;2024-02-14T01:21:52;50661.38;;;-149.77;100.00
60055;BME280;45930;53.514;55.904;2024-02-14T01:22:53;50673.28;;;-149.77;100.00
60055;BME280;45930;53.514;55.904;2024-02-14T01:23:58;50693.09;;;-149.77;100.00
60055;BME280;45930;53.514;55.904;2024-02-14T01:24:59;50728.75;;;-149.77;100.00
60055;BME280;45930;53.514;55.904;2024-02-14T01:26:00;50683.19;;;-149.77;100.00
60055;BME280;45930;53.514;55.904;2024-02-14T01:27:02;50679.22;;;-149.77;100.00
60055;BME280;45930;53.514;55.904;2024-02-14T01:28:04;50681.19;;;-149.77;100.00
60055;BME280;45930;53.514;55.904;2024-02-14T01:29:06;50681.19;;;-149.77;100.00
60055;BME280;45930;53.514;55.904;2024-02-14T01:30:07;50675.25;;;-149.77;100.00
60055;BME280;45930;53.514;55.904;2024-02-14T01:31:09;50681.19;;;-149.77;100.00
60055;BME280;45930;53.514;55.904;2024-02-14T01:32:12;50716.88;;;-149.77;100.00
60055;BME280;45930;53.514;55.904;2024-02-14T01:33:13;50663.38;;;-149.77;100.00
60055;BME280;45930;53.514;55.904;2024-02-14T01:34:14;50669.31;;;-149.77;100.00
60055;BME280;45930;53.514;55.904;2024-02-14T01:35:15;50661.38;;;-149.77;100.00
60055;BME280;45930;53.514;55.904;2024-02-14T01:36:16;50677.25;;;-149.77;100.00
60055;BME280;45930;53.514;55.904;2024-02-14T01:37:16;50693.09;;;-149.77;100.00
60055;BME280;45930;53.514;55.904;2024-02-14T01:38:17;50677.25;;;-149.77;100.00
60055;BME280;45930;53.514;55.904;2024-02-14T01:39:18;50665.34;;;-149.77;100.00
60055;BME280;45930;53.514;55.904;2024-02-14T01:40:19;50712.91;;;-149.77;100.00
60055;BME280;45930;53.514;55.904;2024-02-14T01:41:27;50681.19;;;-149.77;100.00
60055;BME280;45930;53.514;55.904;2024-02-14T01:42:28;50712.91;;;-149.77;100.00
60055;BME280;45930;53.514;55.904;2024-02-14T01:43:29;50701.00;;;-149.77;100.00
60055;BME280;45930;53.514;55.904;2024-02-14T01:44:30;50714.88;;;-149.77;100.00
60055;BME280;45930;53.514;55.904;2024-02-14T01:45:31;50689.13;;;-149.77;100.00
60055;BME280;45930;53.514;55.904;2024-02-14T01:46:40;50673.28;;;-149.77;100.00
60055;BME280;45930;53.514;55.904;2024-02-14T01:47:42;50671.28;;;-149.77;100.00
60055;BME280;45930;53.514;55.904;2024-02-14T01:48:43;50699.03;;;-149.77;100.00
60055;BME280;45930;53.514;55.904;2024-02-14T01:49:44;50683.19;;;-149.77;100.00
60055;BME280;45930;53.514;55.904;2024-02-14T01:50:45;50685.16;;;-149.77;100.00
60055;BME280;45930;53.514;55.904;2024-02-14T01:51:46;50677.25;;;-149.77;100.00
60055;BME280;45930;53.514;55.904;2024-02-14T01:52:47;50685.16;;;-149.77;100.00
60055;BME280;45930;53.514;55.904;2024-02-14T01:53:48;50718.84;;;-149.77;100.00
60055;BME280;45930;53.514;55.904;2024-02-14T01:54:49;50695.06;;;-149.77;100.00
60055;BME280;45930;53.514;55.904;2024-02-14T01:55:50;50681.19;;;-149.77;100.00
60055;BME280;45930;53.514;55.904;2024-02-14T01:56:51;50693.09;;;-149.77;100.00
60055;BME280;45930;53.514;55.904;2024-02-14T01:57:52;50708.94;;;-149.77;100.00
60055;BME280;45930;53.514;55.904;2024-02-14T01:58:53;50689.13;;;-149.77;100.00
60055;BME280;45930;53.514;55.904;2024-02-14T01:59:54;50716.88;;;-149.77;100.00
60055;BME280;45930;53.514;55.904;2024-02-14T02:00:57;50718.84;;;-149.77;100.00
60055;BME280;45930;53.514;55.904;2024-02-14T02:01:59;50712.91;;;-149.77;100.00
60055;BME280;45930;53.514;55.904;2024-02-14T02:03:00;50681.19;;;-149.77;100.00
60055;BME280;45930;53.514;55.904;2024-02-14T02:04:01;50703.00;;;-149.77;100.00
60055;BME280;45930;53.514;55.904;2024-02-14T02:05:03;50697.06;;;-149.77;100.00
60055;BME280;45930;53.514;55.904;2024-02-14T02:06:05;50685.16;;;-149.77;100.00
60055;BME280;45930;53.514;55.904;2024-02-14T02:07:06;50728.75;;;-149.77;100.00
60055;BME280;45930;53.514;55.904;2024-02-14T02:08:08;50704.97;;;-149.77;100.00
60055;BME280;45930;53.514;55.904;2024-02-14T02:09:10;50669.31;;;-149.77;100.00
60055;BME280;45930;53.514;55.904;2024-02-14T02:10:10;50673.28;;;-149.77;100.00
60055;BME280;45930;53.514;55.904;2024-02-14T02:11:21;50679.22;;;-149.77;100.00
60055;BME280;45930;53.514;55.904;2024-02-14T02:12:42;50697.06;;;-149.77;100.00
60055;BME280;45930;53.514;55.904;2024-02-14T02:14:03;50685.16;;;-149.77;100.00
60055;BME280;45930;53.514;55.904;2024-02-14T02:15:24;50689.13;;;-149.77;100.00
60055;BME280;45930;53.514;55.904;2024-02-14T02:16:44;50685.16;;;-149.77;100.00
60055;BME280;45930;53.514;55.904;2024-02-14T02:18:06;50673.28;;;-149.77;100.00
60055;BME280;45930;53.514;55.904;2024-02-14T02:19:27;50689.13;;;-149.77;100.00
60055;BME280;45930;53.514;55.904;2024-02-14T02:20:48;50661.38;;;-149.77;100.00
60055;BME280;45930;53.514;55.904;2024-02-14T02:21:49;50659.41;;;-149.77;100.00
60055;BME280;45930;53.514;55.904;2024-02-14T02:22:50;50673.28;;;-149.77;100.00
60055;BME280;45930;53.514;55.904;2024-02-14T02:24:10;50659.41;;;-149.77;100.00
60055;BME280;45930;53.514;55.904;2024-02-14T02:25:11;50651.47;;;-149.77;100.00
60055;BME280;45930;53.514;55.904;2024-02-14T02:26:33;50637.59;;;-149.77;100.00
60055;BME280;45930;53.514;55.904;2024-02-14T02:27:53;50621.75;;;-149.77;100.00
60055;BME280;45930;53.514;55.904;2024-02-14T02:29:05;50633.66;;;-149.77;100.00
60055;BME280;45930;53.514;55.904;2024-02-14T02:30:07;50651.47;;;-149.77;100.00
60055;BME280;45930;53.514;55.904;2024-02-14T02:31:12;50627.69;;;-149.77;100.00
60055;BME280;45930;53.514;55.904;2024-02-14T02:32:15;50645.53;;;-149.77;100.00
60055;BME280;45930;53.514;55.904;2024-02-14T02:33:16;50645.53;;;-149.77;100.00
60055;BME280;45930;53.514;55.904;2024-02-14T02:34:17;50609.88;;;-149.77;100.00
60055;BME280;45930;53.514;55.904;2024-02-14T02:35:18;50617.78;;;-149.77;100.00
60055;BME280;45930;53.514;55.904;2024-02-14T02:36:41;50633.66;;;-149.77;100.00
60055;BME280;45930;53.514;55.904;2024-02-14T02:38:00;50635.63;;;-149.77;100.00
60055;BME280;45930;53.514;55.904;2024-02-14T02:39:21;50633.66;;;-149.77;100.00
60055;BME280;45930;53.514;55.904;2024-02-14T02:40:43;50613.84;;;-149.77;100.00
60055;BME280;45930;53.514;55.904;2024-02-14T02:42:04;50582.13;;;-149.77;100.00
60055;BME280;45930;53.514;55.904;2024-02-14T02:43:30;50617.78;;;-149.77;100.00
60055;BME280;45930;53.514;55.904;2024-02-14T02:44:52;50607.88;;;-149.77;100.00
60055;BME280;45930;53.514;55.904;2024-02-14T02:46:21;50613.84;;;-149.77;100.00
60055;BME280;45930;53.514;55.904;2024-02-14T02:47:42;50625.72;;;-149.77;100.00
60055;BME280;45930;53.514;55.904;2024-02-14T02:49:03;50603.94;;;-149.77;100.00
60055;BME280;45930;53.514;55.904;2024-02-14T02:50:06;50649.50;;;-149.77;100.00
60055;BME280;45930;53.514;55.904;2024-02-14T02:51:28;50617.78;;;-149.77;100.00
60055;BME280;45930;53.514;55.904;2024-02-14T02:52:50;50592.03;;;-149.77;100.00
60055;BME280;45930;53.514;55.904;2024-02-14T02:54:11;50601.94;;;-149.77;100.00
60055;BME280;45930;53.514;55.904;2024-02-14T02:55:32;50601.94;;;-149.77;100.00
60055;BME280;45930;53.514;55.904;2024-02-14T02:56:37;50590.06;;;-149.77;100.00
60055;BME280;45930;53.514;55.904;2024-02-14T02:57:38;50580.16;;;-149.77;100.00
60055;BME280;45930;53.514;55.904;2024-02-14T02:58:40;50617.78;;;-149.77;100.00
60055;BME280;45930;53.514;55.904;2024-02-14T02:59:40;50584.09;;;-149.77;100.00
60055;BME280;45930;53.514;55.904;2024-02-14T03:00:43;50625.72;;;-149.77;100.00
60055;BME280;45930;53.514;55.904;2024-02-14T03:01:55;50594.00;;;-149.77;100.00
60055;BME280;45930;53.514;55.904;2024-02-14T03:03:18;50578.16;;;-149.77;100.00
60055;BME280;45930;53.514;55.904;2024-02-14T03:04:38;50599.97;;;-149.77;100.00
60055;BME280;45930;53.514;55.904;2024-02-14T03:05:59;50627.69;;;-149.77;100.00
60055;BME280;45930;53.514;55.904;2024-02-14T03:07:21;50617.78;;;-149.77;100.00
60055;BME280;45930;53.514;55.904;2024-02-14T03:08:43;50596.00;;;-149.77;100.00
60055;BME280;45930;53.514;55.904;2024-02-14T03:10:05;50609.88;;;-149.77;100.00
60055;BME280;45930;53.514;55.904;2024-02-14T03:11:27;50609.88;;;-149.77;100.00
60055;BME280;45930;53.514;55.904;2024-02-14T03:12:48;50617.78;;;-149.77;100.00
60055;BME280;45930;53.514;55.904;2024-02-14T03:14:09;50617.78;;;-149.77;100.00
60055;BME280;45930;53.514;55.904;2024-02-14T03:15:30;50635.63;;;-149.77;100.00
60055;BME280;45930;53.514;55.904;2024-02-14T03:16:33;50649.50;;;-149.77;100.00
60055;BME280;45930;53.514;55.904;2024-02-14T03:17:34;50665.34;;;-149.77;100.00
60055;BME280;45930;53.514;55.904;2024-02-14T03:18:36;50627.69;;;-149.77;100.00
60055;BME280;45930;53.514;55.904;2024-02-14T03:19:40;50677.25;;;-149.77;100.00
60055;BME280;45930;53.514;55.904;2024-02-14T03:20:40;50685.16;;;-149.77;100.00
60055;BME280;45930;53.514;55.904;2024-02-14T03:21:41;50653.47;;;-149.77;100.00
60055;BME280;45930;53.514;55.904;2024-02-14T03:22:43;50661.38;;;-149.77;100.00
60055;BME280;45930;53.514;55.904;2024-02-14T03:23:47;50665.34;;;-149.77;100.00
60055;BME280;45930;53.514;55.904;2024-02-14T03:24:49;50657.44;;;-149.77;100.00
60055;BME280;45930;53.514;55.904;2024-02-14T03:25:50;50649.50;;;-149.77;100.00
60055;BME280;45930;53.514;55.904;2024-02-14T03:26:52;50667.34;;;-149.77;100.00
60055;BME280;45930;53.514;55.904;2024-02-14T03:27:54;50669.31;;;-149.77;100.00
60055;BME280;45930;53.514;55.904;2024-02-14T03:28:54;50661.38;;;-149.77;100.00
60055;BME280;45930;53.514;55.904;2024-02-14T03:29:55;50659.41;;;-149.77;100.00
60055;BME280;45930;53.514;55.904;2024-02-14T03:30:58;50659.41;;;-149.77;100.00
60055;BME280;45930;53.514;55.904;2024-02-14T03:31:59;50611.84;;;-149.77;100.00
60055;BME280;45930;53.514;55.904;2024-02-14T03:33:05;50637.59;;;-149.77;100.00
60055;BME280;45930;53.514;55.904;2024-02-14T03:34:06;50627.69;;;-149.77;100.00
60055;BME280;45930;53.514;55.904;2024-02-14T03:35:07;50631.66;;;-149.77;100.00
60055;BME280;45930;53.514;55.904;2024-02-14T03:36:08;50611.84;;;-149.77;100.00
60055;BME280;45930;53.514;55.904;2024-02-14T03:37:10;50637.59;;;-149.77;100.00
60055;BME280;45930;53.514;55.904;2024-02-14T03:38:11;50586.09;;;-149.77;100.00
60055;BME280;45930;53.514;55.904;2024-02-14T03:39:11;50613.84;;;-149.77;100.00
60055;BME280;45930;53.514;55.904;2024-02-14T03:40:15;50651.47;;;-149.77;100.00
60055;BME280;45930;53.514;55.904;2024-02-14T03:41:15;50586.09;;;-149.77;100.00
60055;BME280;45930;53.514;55.904;2024-02-14T03:42:16;50629.69;;;-149.77;100.00
60055;BME280;45930;53.514;55.904;2024-02-14T03:43:17;50639.59;;;-149.77;100.00
60055;BME280;45930;53.514;55.904;2024-02-14T03:44:18;50621.75;;;-149.77;100.00
60055;BME280;45930;53.514;55.904;2024-02-14T03:45:18;50586.09;;;-149.77;100.00
60055;BME280;45930;53.514;55.904;2024-02-14T03:46:19;50599.97;;;-149.77;100.00
60055;BME280;45930;53.514;55.904;2024-02-14T03:47:22;50627.69;;;-149.77;100.00
60055;BME280;45930;53.514;55.904;2024-02-14T03:48:23;50645.53;;;-149.77;100.00
60055;BME280;45930;53.514;55.904;2024-02-14T03:49:24;50625.72;;;-149.77;100.00
60055;BME280;45930;53.514;55.904;2024-02-14T03:50:26;50617.78;;;-149.77;100.00
60055;BME280;45930;53.514;55.904;2024-02-14T03:51:27;50645.53;;;-149.77;100.00
60055;BME280;45930;53.514;55.904;2024-02-14T03:52:28;50659.41;;;-149.77;100.00
60055;BME280;45930;53.514;55.904;2024-02-14T03:53:29;50613.84;;;-149.77;100.00
60055;BME280;45930;53.514;55.904;2024-02-14T03:54:29;50594.00;;;-149.77;100.00
60055;BME280;45930;53.514;55.904;2024-02-14T03:55:31;50627.69;;;-149.77;100.00
60055;BME280;45930;53.514;55.904;2024-02-14T03:56:32;50596.00;;;-149.77;100.00
60055;BME280;45930;53.514;55.904;2024-02-14T03:57:33;50627.69;;;-149.77;100.00
60055;BME280;45930;53.514;55.904;2024-02-14T03:58:35;50566.28;;;-149.77;100.00
60055;BME280;45930;53.514;55.904;2024-02-14T03:59:38;50611.84;;;-149.77;100.00
60055;BME280;45930;53.514;55.904;2024-02-14T04:00:39;50590.06;;;-149.77;100.00
60055;BME280;45930;53.514;55.904;2024-02-14T04:01:46;50597.97;;;-149.77;100.00
60055;BME280;45930;53.514;55.904;2024-02-14T04:02:47;50584.09;;;-149.77;100.00
60055;BME280;45930;53.514;55.904;2024-02-14T04:03:49;50558.34;;;-149.77;100.00
60055;BME280;45930;53.514;55.904;2024-02-14T04:04:50;50562.31;;;-149.77;100.00
60055;BME280;45930;53.514;55.904;2024-02-14T04:05:51;50564.28;;;-149.77;100.00
60055;BME280;45930;53.514;55.904;2024-02-14T04:06:51;50544.47;;;-149.77;100.00
60055;BME280;45930;53.514;55.904;2024-02-14T04:08:02;50528.63;;;-149.77;100.00
60055;BME280;45930;53.514;55.904;2024-02-14T04:09:03;50538.53;;;-149.77;100.00
60055;BME280;45930;53.514;55.904;2024-02-14T04:10:05;50562.31;;;-149.77;100.00
60055;BME280;45930;53.514;55.904;2024-02-14T04:11:08;50592.03;;;-149.77;100.00
60055;BME280;45930;53.514;55.904;2024-02-14T04:12:09;50514.75;;;-149.77;100.00
60055;BME280;45930;53.514;55.904;2024-02-14T04:13:11;50556.38;;;-149.77;100.00
60055;BME280;45930;53.514;55.904;2024-02-14T04:14:11;50518.72;;;-149.77;100.00
60055;BME280;45930;53.514;55.904;2024-02-14T04:15:12;50514.75;;;-149.77;100.00
60055;BME280;45930;53.514;55.904;2024-02-14T04:16:23;50520.69;;;-149.77;100.00
60055;BME280;45930;53.514;55.904;2024-02-14T04:17:27;50494.94;;;-149.77;100.00
60055;BME280;45930;53.514;55.904;2024-02-14T04:18:28;50445.41;;;-149.77;100.00
60055;BME280;45930;53.514;55.904;2024-02-14T04:19:29;50469.19;;;-149.77;99.81
60055;BME280;45930;53.514;55.904;2024-02-14T04:20:30;50461.25;;;-149.77;100.00
60055;BME280;45930;53.514;55.904;2024-02-14T04:21:31;50421.63;;;-149.77;98.18
60055;BME280;45930;53.514;55.904;2024-02-14T04:22:32;50399.84;;;-149.77;95.49
60055;BME280;45930;53.514;55.904;2024-02-14T04:23:36;50397.84;;;-149.77;93.31
60055;BME280;45930;53.514;55.904;2024-02-14T04:24:37;50366.16;;;-149.77;91.13
60055;BME280;45930;53.514;55.904;2024-02-14T04:25:38;50332.47;;;-149.77;91.04
60055;BME280;45930;53.514;55.904;2024-02-14T04:26:39;50280.97;;;-149.77;90.68
60055;BME280;45930;53.514;55.904;2024-02-14T04:27:40;50332.47;;;-149.77;90.38
60055;BME280;45930;53.514;55.904;2024-02-14T04:28:44;50296.81;;;-149.77;90.30
60055;BME280;45930;53.514;55.904;2024-02-14T04:29:46;50275.00;;;-149.77;89.60
60055;BME280;45930;53.514;55.904;2024-02-14T04:30:47;50259.16;;;-149.77;89.82
60055;BME280;45930;53.514;55.904;2024-02-14T04:31:57;50253.22;;;-149.77;90.48
60055;BME280;45930;53.514;55.904;2024-02-14T04:32:57;50294.81;;;-149.77;90.13
60055;BME280;45930;53.514;55.904;2024-02-14T04:33:58;50300.78;;;-149.77;89.04
60055;BME280;45930;53.514;55.904;2024-02-14T04:34:59;50247.28;;;-149.77;87.97
60055;BME280;45930;53.514;55.904;2024-02-14T04:36:00;50237.38;;;-149.77;87.62
60055;BME280;45930;53.514;55.904;2024-02-14T04:37:00;50261.16;;;-149.77;86.89
60055;BME280;45930;53.514;55.904;2024-02-14T04:38:03;50203.69;;;-149.77;87.54
60055;BME280;45930;53.514;55.904;2024-02-14T04:39:03;50229.44;;;-149.77;86.93
60055;BME280;45930;53.514;55.904;2024-02-14T04:40:05;50227.47;;;-149.77;85.83
60055;BME280;45930;53.514;55.904;2024-02-14T04:41:06;50209.63;;;-149.77;86.81
60055;BME280;45930;53.514;55.904;2024-02-14T04:42:07;50221.53;;;-149.77;88.16
60055;BME280;45930;53.514;55.904;2024-02-14T04:43:09;50211.63;;;-149.77;88.38
60055;BME280;45930;53.514;55.904;2024-02-14T04:44:10;50205.66;;;-149.77;88.84
60055;BME280;45930;53.514;55.904;2024-02-14T04:45:11;50199.72;;;-149.77;89.19
60055;BME280;45930;53.514;55.904;2024-02-14T04:46:26;50211.63;;;-149.77;88.86
60055;BME280;45930;53.514;55.904;2024-02-14T04:47:27;50225.47;;;-149.77;89.74
60055;BME280;45930;53.514;55.904;2024-02-14T04:48:30;50225.47;;;-149.77;90.72
60055;BME280;45930;53.514;55.904;2024-02-14T04:49:31;50223.50;;;-149.77;91.26
60055;BME280;45930;53.514;55.904;2024-02-14T04:50:31;50211.63;;;-149.77;91.94
60055;BME280;45930;53.514;55.904;2024-02-14T04:51:33;50245.28;;;-149.77;91.17
60055;BME280;45930;53.514;55.904;2024-02-14T04:52:34;50197.75;;;-149.77;91.37
60055;BME280;45930;53.514;55.904;2024-02-14T04:53:35;50243.31;;;-149.77;90.71
60055;BME280;45930;53.514;55.904;2024-02-14T04:54:36;50205.66;;;-149.77;90.49
60055;BME280;45930;53.514;55.904;2024-02-14T04:55:36;50233.41;;;-149.77;91.15
60055;BME280;45930;53.514;55.904;2024-02-14T04:56:37;50195.75;;;-149.77;90.94
60055;BME280;45930;53.514;55.904;2024-02-14T04:57:38;50207.66;;;-149.77;91.13
60055;BME280;45930;53.514;55.904;2024-02-14T04:58:39;50233.41;;;-149.77;91.27
60055;BME280;45930;53.514;55.904;2024-02-14T04:59:39;50245.28;;;-149.77;91.96
60055;BME280;45930;53.514;55.904;2024-02-14T05:00:40;50225.47;;;-149.77;92.46
60055;BME280;45930;53.514;55.904;2024-02-14T05:01:41;50237.38;;;-149.77;93.42
60055;BME280;45930;53.514;55.904;2024-02-14T05:02:42;50233.41;;;-149.77;95.70
60055;BME280;45930;53.514;55.904;2024-02-14T05:03:43;50257.19;;;-149.77;96.57
60055;BME280;45930;53.514;55.904;2024-02-14T05:04:43;50273.03;;;-149.77;99.07
60055;BME280;45930;53.514;55.904;2024-02-14T05:05:44;50277.00;;;-149.77;100.00
60055;BME280;45930;53.514;55.904;2024-02-14T05:06:45;50318.59;;;-149.77;100.00
60055;BME280;45930;53.514;55.904;2024-02-14T05:07:46;50395.88;;;-149.77;100.00
60055;BME280;45930;53.514;55.904;2024-02-14T05:08:46;50385.97;;;-149.77;100.00
60055;BME280;45930;53.514;55.904;2024-02-14T05:09:47;50393.91;;;-149.77;100.00
60055;BME280;45930;53.514;55.904;2024-02-14T05:10:52;50384.00;;;-149.77;100.00
60055;BME280;45930;53.514;55.904;2024-02-14T05:11:52;50415.69;;;-149.77;100.00
60055;BME280;45930;53.514;55.904;2024-02-14T05:12:53;50423.63;;;-149.77;100.00
60055;BME280;45930;53.514;55.904;2024-02-14T05:13:54;50487.03;;;-149.77;100.00
60055;BME280;45930;53.514;55.904;2024-02-14T05:14:55;50469.19;;;-149.77;100.00
60055;BME280;45930;53.514;55.904;2024-02-14T05:15:56;50459.28;;;-149.77;100.00
60055;BME280;45930;53.514;55.904;2024-02-14T05:16:57;50502.88;;;-149.77;100.00
60055;BME280;45930;53.514;55.904;2024-02-14T05:17:57;50475.13;;;-149.77;100.00
60055;BME280;45930;53.514;55.904;2024-02-14T05:18:58;50500.88;;;-149.77;100.00
60055;BME280;45930;53.514;55.904;2024-02-14T05:19:59;50487.03;;;-149.77;100.00
60055;BME280;45930;53.514;55.904;2024-02-14T05:21:00;50506.84;;;-149.77;100.00
60055;BME280;45930;53.514;55.904;2024-02-14T05:22:00;50494.94;;;-149.77;100.00
60055;BME280;45930;53.514;55.904;2024-02-14T05:23:01;50514.75;;;-149.77;100.00